createdAt,value
2018-12-17T00:02:16.881Z,78.20
2018-12-17T00:04:45.488Z,68.80
2018-12-17T00:07:14.326Z,65.40
2018-12-17T00:09:42.706Z,66.87
2018-12-17T00:12:16.517Z,62.17
2018-12-17T00:14:41.819Z,63.30
2018-12-17T00:17:10.164Z,57.70
2018-12-17T00:19:38.711Z,61.57
2018-12-17T00:22:07.217Z,62.80
2018-12-17T00:24:35.840Z,61.97
2018-12-17T00:27:04.320Z,57.23
2018-12-17T00:29:32.759Z,56.70
2018-12-17T00:32:01.144Z,56.43
2018-12-17T00:34:29.710Z,61.33
2018-12-17T00:36:58.125Z,64.23
2018-12-17T00:39:26.436Z,58.37
2018-12-17T00:41:54.731Z,57.77
2018-12-17T00:44:23.074Z,56.10
2018-12-17T00:46:51.583Z,55.83
2018-12-17T00:49:20.196Z,56.50
2018-12-17T00:51:48.835Z,56.30
2018-12-17T00:54:17.379Z,60.60
2018-12-17T00:56:45.921Z,62.27
2018-12-17T00:59:14.598Z,59.47
2018-12-17T01:01:43.169Z,60.37
2018-12-17T01:04:11.667Z,61.30
2018-12-17T01:06:40.066Z,62.53
2018-12-17T01:09:09.360Z,56.27
2018-12-17T01:11:38.317Z,62.07
2018-12-17T01:14:06.625Z,57.10
2018-12-17T01:16:35.079Z,49.50
2018-12-17T01:19:03.451Z,57.63
2018-12-17T01:21:32.566Z,55.73
2018-12-17T01:24:00.893Z,56.70
2018-12-17T01:26:29.838Z,59.53
2018-12-17T01:28:58.218Z,51.50
2018-12-17T01:31:26.533Z,47.37
2018-12-17T01:33:55.614Z,43.60
2018-12-17T01:36:23.925Z,45.27
2018-12-17T01:38:53.037Z,41.40
2018-12-17T01:41:21.859Z,42.60
2018-12-17T01:43:50.363Z,42.83
2018-12-17T01:46:18.769Z,38.80
2018-12-17T01:48:47.178Z,39.07
2018-12-17T01:51:15.645Z,39.73
2018-12-17T01:53:44.147Z,42.33
2018-12-17T01:56:12.497Z,38.67
2018-12-17T01:58:40.878Z,38.23
2018-12-17T02:01:09.421Z,37.93
2018-12-17T02:03:37.751Z,41.53
2018-12-17T02:06:06.232Z,45.80
2018-12-17T02:08:35.185Z,41.63
2018-12-17T02:11:04.106Z,42.83
2018-12-17T02:13:32.405Z,45.43
2018-12-17T02:16:00.713Z,41.83
2018-12-17T02:18:29.083Z,43.73
2018-12-17T02:20:58.026Z,55.50
2018-12-17T02:23:26.437Z,56.50
2018-12-17T02:25:54.723Z,53.03
2018-12-17T02:28:23.095Z,48.53
2018-12-17T02:30:51.630Z,50.23
2018-12-17T02:33:20.179Z,44.23
2018-12-17T02:35:48.653Z,45.30
2018-12-17T02:38:17.013Z,50.53
2018-12-17T02:40:45.541Z,54.70
2018-12-17T02:43:14.227Z,52.60
2018-12-17T02:45:42.715Z,52.07
2018-12-17T02:48:11.138Z,46.70
2018-12-17T02:50:39.428Z,46.10
2018-12-17T02:53:08.107Z,43.17
2018-12-17T02:55:36.681Z,48.60
2018-12-17T02:58:05.224Z,40.67
2018-12-17T03:00:33.807Z,33.37
2018-12-17T03:03:02.234Z,33.37
2018-12-17T03:05:30.498Z,36.77
2018-12-17T03:07:59.098Z,40.57
2018-12-17T03:10:27.522Z,33.17
2018-12-17T03:12:55.937Z,38.03
2018-12-17T03:15:24.308Z,29.73
2018-12-17T03:17:52.626Z,35.77
2018-12-17T03:20:21.018Z,31.30
2018-12-17T03:22:49.298Z,32.63
2018-12-17T03:25:17.804Z,33.53
2018-12-17T03:27:46.392Z,32.43
2018-12-17T03:30:14.923Z,31.60
2018-12-17T03:32:43.379Z,30.97
2018-12-17T03:35:12.179Z,35.70
2018-12-17T03:37:40.487Z,32.63
2018-12-17T03:40:08.972Z,29.17
2018-12-17T03:42:37.302Z,36.70
2018-12-17T03:45:06.002Z,31.33
2018-12-17T03:47:34.378Z,34.90
2018-12-17T03:50:03.327Z,33.77
2018-12-17T03:52:31.876Z,32.70
2018-12-17T03:55:00.190Z,32.37
2018-12-17T03:57:28.568Z,32.33
2018-12-17T03:59:56.867Z,32.27
2018-12-17T04:02:25.986Z,29.50
2018-12-17T04:04:54.647Z,28.13
2018-12-17T04:07:23.324Z,28.07
2018-12-17T04:09:52.279Z,30.40
2018-12-17T04:12:20.789Z,32.00
2018-12-17T04:14:49.207Z,31.53
2018-12-17T04:17:17.647Z,29.63
2018-12-17T04:19:46.307Z,36.73
2018-12-17T04:22:14.705Z,39.27
2018-12-17T04:24:43.211Z,41.27
2018-12-17T04:27:11.651Z,50.83
2018-12-17T04:29:40.057Z,43.97
2018-12-17T04:32:08.686Z,49.00
2018-12-17T04:34:37.108Z,47.07
2018-12-17T04:37:05.963Z,47.53
2018-12-17T04:39:34.363Z,48.57
2018-12-17T04:42:02.745Z,43.87
2018-12-17T04:44:31.128Z,49.90
2018-12-17T04:46:59.423Z,42.90
2018-12-17T04:49:27.965Z,41.00
2018-12-17T04:51:56.521Z,48.50
2018-12-17T04:54:25.553Z,51.50
2018-12-17T04:56:54.124Z,41.10
2018-12-17T04:59:22.718Z,43.27
2018-12-17T05:01:51.560Z,46.50
2018-12-17T05:04:20.002Z,47.77
2018-12-17T05:06:48.317Z,50.40
2018-12-17T05:09:16.966Z,45.20
2018-12-17T05:11:45.296Z,45.37
2018-12-17T05:14:13.752Z,45.53
2018-12-17T05:16:42.090Z,47.23
2018-12-17T05:19:11.133Z,44.40
2018-12-17T05:21:39.483Z,45.13
2018-12-17T05:24:07.877Z,48.43
2018-12-17T05:26:37.063Z,46.03
2018-12-17T05:29:05.522Z,51.57
2018-12-17T05:31:34.637Z,44.73
2018-12-17T05:34:03.060Z,40.60
2018-12-17T05:36:31.835Z,42.13
2018-12-17T05:39:00.158Z,39.13
2018-12-17T05:41:28.752Z,39.13
2018-12-17T05:43:57.115Z,36.50
2018-12-17T05:46:25.616Z,32.77
2018-12-17T05:48:54.037Z,33.90
2018-12-17T05:51:22.532Z,32.37
2018-12-17T05:53:50.897Z,37.50
2018-12-17T05:56:19.933Z,32.60
2018-12-17T05:58:48.320Z,35.10
2018-12-17T06:01:16.797Z,34.47
2018-12-17T06:03:45.419Z,38.00
2018-12-17T06:06:14.088Z,27.10
2018-12-17T06:08:42.886Z,35.63
2018-12-17T06:11:11.197Z,33.87
2018-12-17T06:13:39.633Z,28.47
2018-12-17T06:16:07.966Z,31.27
2018-12-17T06:18:36.598Z,31.10
2018-12-17T06:21:05.084Z,32.67
2018-12-17T06:23:33.550Z,29.93
2018-12-17T06:26:01.956Z,33.67
2018-12-17T06:28:30.406Z,31.83
2018-12-17T06:30:59.131Z,31.70
2018-12-17T06:33:27.577Z,29.57
2018-12-17T06:35:55.983Z,32.80
2018-12-17T06:38:24.479Z,31.63
2018-12-17T06:40:53.027Z,31.83
2018-12-17T06:43:21.430Z,36.07
2018-12-17T06:45:49.868Z,33.73
2018-12-17T06:48:18.786Z,34.27
2018-12-17T06:50:47.242Z,33.87
2018-12-17T06:53:16.672Z,36.10
2018-12-17T06:55:45.071Z,36.13
2018-12-17T06:58:13.852Z,34.60
2018-12-17T07:00:42.291Z,36.67
2018-12-17T07:03:11.391Z,35.63
2018-12-17T07:05:39.791Z,33.97
2018-12-17T07:08:08.547Z,32.23
2018-12-17T07:10:36.935Z,35.80
2018-12-17T07:13:05.416Z,33.53
2018-12-17T07:15:33.725Z,35.07
2018-12-17T07:18:02.048Z,33.93
2018-12-17T07:20:30.501Z,36.40
2018-12-17T07:22:59.095Z,36.23
2018-12-17T07:25:27.510Z,41.63
2018-12-17T07:27:55.845Z,36.30
2018-12-17T07:30:24.886Z,35.30
2018-12-17T07:32:53.413Z,35.43
2018-12-17T07:35:22.282Z,32.00
2018-12-17T07:37:50.690Z,34.33
2018-12-17T07:40:19.172Z,37.67
2018-12-17T07:42:47.976Z,33.20
2018-12-17T07:45:16.348Z,33.63
2018-12-17T07:47:44.652Z,33.97
2018-12-17T07:50:13.366Z,32.67
2018-12-17T07:52:42.074Z,36.47
2018-12-17T07:55:10.449Z,38.80
2018-12-17T07:57:39.533Z,38.73
2018-12-17T08:00:08.581Z,49.80
2018-12-17T08:02:37.017Z,44.67
2018-12-17T08:05:07.346Z,39.67
2018-12-17T08:07:36.471Z,38.40
2018-12-17T08:10:06.194Z,41.03
2018-12-17T08:12:34.720Z,43.13
2018-12-17T08:15:03.877Z,43.23
2018-12-17T08:17:32.419Z,42.60
2018-12-17T08:20:00.730Z,40.43
2018-12-17T08:22:29.330Z,39.30
2018-12-17T08:24:57.698Z,40.87
2018-12-17T08:27:26.393Z,41.63
2018-12-17T08:29:54.739Z,36.43
2018-12-17T08:32:23.327Z,31.13
2018-12-17T08:34:51.807Z,32.23
2018-12-17T08:37:20.186Z,30.00
2018-12-17T08:39:48.824Z,30.73
2018-12-17T08:42:17.162Z,32.23
2018-12-17T08:44:45.782Z,27.63
2018-12-17T08:47:14.313Z,23.47
2018-12-17T08:49:42.816Z,26.70
2018-12-17T08:52:11.158Z,25.73
2018-12-17T08:54:39.872Z,24.10
2018-12-17T08:57:08.195Z,22.67
2018-12-17T08:59:36.518Z,27.90
2018-12-17T09:02:04.939Z,25.33
2018-12-17T09:04:33.279Z,25.30
2018-12-17T09:07:01.847Z,28.50
2018-12-17T09:09:30.299Z,26.73
2018-12-17T09:11:58.625Z,28.10
2018-12-17T09:14:27.210Z,20.10
2018-12-17T09:16:55.909Z,19.40
2018-12-17T09:19:24.426Z,24.17
2018-12-17T09:21:52.756Z,22.83
2018-12-17T09:24:21.751Z,21.50
2018-12-17T09:26:50.212Z,23.97
2018-12-17T09:29:18.630Z,23.93
2018-12-17T09:31:47.076Z,23.07
2018-12-17T09:34:15.615Z,23.03
2018-12-17T09:36:43.958Z,23.00
2018-12-17T09:39:12.360Z,23.70
2018-12-17T09:41:41.544Z,21.30
2018-12-17T09:44:09.919Z,21.83
2018-12-17T09:46:38.433Z,21.67
2018-12-17T09:49:07.104Z,20.17
2018-12-17T09:51:35.430Z,17.03
2018-12-17T09:54:03.801Z,15.70
2018-12-17T09:56:32.792Z,18.10
2018-12-17T09:59:02.173Z,15.70
2018-12-17T10:01:31.461Z,15.53
2018-12-17T10:03:59.846Z,11.27
2018-12-17T10:06:28.670Z,10.17
2018-12-17T10:08:57.121Z,9.90
2018-12-17T10:11:25.450Z,10.80
2018-12-17T10:13:53.779Z,7.80
2018-12-17T10:16:22.572Z,9.83
2018-12-17T10:18:51.015Z,9.10
2018-12-17T10:21:19.388Z,8.53
2018-12-17T10:23:48.416Z,9.97
2018-12-17T10:26:16.979Z,8.93
2018-12-17T10:28:45.522Z,8.20
2018-12-17T10:31:14.072Z,9.87
2018-12-17T10:33:42.471Z,9.10
2018-12-17T10:36:10.792Z,7.70
2018-12-17T10:38:39.171Z,9.60
2018-12-17T10:41:07.685Z,7.83
2018-12-17T10:43:36.512Z,9.87
2018-12-17T10:46:10.213Z,7.60
2018-12-17T10:48:38.766Z,11.30
2018-12-17T10:51:07.080Z,10.00
2018-12-17T10:53:36.136Z,6.73
2018-12-17T10:56:04.696Z,7.67
2018-12-17T10:58:33.606Z,8.43
2018-12-17T11:01:07.309Z,10.10
2018-12-17T11:03:37.702Z,10.20
2018-12-17T11:06:07.253Z,8.50
2018-12-17T11:08:35.643Z,8.97
2018-12-17T11:11:04.785Z,11.37
2018-12-17T11:13:33.069Z,9.67
2018-12-17T11:16:01.575Z,9.57
2018-12-17T11:18:30.196Z,9.60
2018-12-17T11:20:58.485Z,9.73
2018-12-17T11:23:26.870Z,11.37
2018-12-17T11:25:55.273Z,11.97
2018-12-17T11:28:24.204Z,11.37
2018-12-17T11:30:52.646Z,9.13
2018-12-17T11:33:21.060Z,13.23
2018-12-17T11:35:49.527Z,11.27
2018-12-17T11:38:17.990Z,7.93
2018-12-17T11:40:46.374Z,10.50
2018-12-17T11:43:14.769Z,10.50
2018-12-17T11:45:43.221Z,9.20
2018-12-17T11:48:11.648Z,7.67
2018-12-17T11:50:41.050Z,10.77
2018-12-17T11:53:09.481Z,11.03
2018-12-17T11:55:37.890Z,9.23
2018-12-17T11:58:11.098Z,8.07
2018-12-17T12:00:41.408Z,6.57
2018-12-17T12:03:10.087Z,6.27
2018-12-17T12:05:38.615Z,8.20
2018-12-17T12:08:06.926Z,9.30
2018-12-17T12:10:35.424Z,10.00
2018-12-17T12:13:04.015Z,10.43
2018-12-17T12:15:32.729Z,10.87
2018-12-17T12:18:01.130Z,8.93
2018-12-17T12:20:30.131Z,9.27
2018-12-17T12:22:58.767Z,9.23
2018-12-17T12:25:27.153Z,8.93
2018-12-17T12:27:55.693Z,8.60
2018-12-17T12:30:24.146Z,8.03
2018-12-17T12:32:52.860Z,8.47
2018-12-17T12:35:21.668Z,9.17
2018-12-17T12:37:50.042Z,7.73
2018-12-17T12:40:19.179Z,9.33
2018-12-17T12:42:51.670Z,9.07
2018-12-17T12:45:18.706Z,8.33
2018-12-17T12:47:47.516Z,5.83
2018-12-17T12:50:15.887Z,7.17
2018-12-17T12:52:44.209Z,8.63
2018-12-17T12:55:12.587Z,7.37
2018-12-17T12:57:40.906Z,6.03
2018-12-17T13:00:11.819Z,7.60
2018-12-17T13:02:40.234Z,7.47
2018-12-17T13:05:08.854Z,9.00
2018-12-17T13:07:37.445Z,8.63
2018-12-17T13:10:07.749Z,10.10
2018-12-17T13:12:36.205Z,7.77
2018-12-17T13:15:05.531Z,6.40
2018-12-17T13:17:33.983Z,9.10
2018-12-17T13:20:02.535Z,9.80
2018-12-17T13:22:30.839Z,8.23
2018-12-17T13:24:59.319Z,8.27
2018-12-17T13:27:27.894Z,9.10
2018-12-17T13:29:56.225Z,6.93
2018-12-17T13:32:24.705Z,8.23
2018-12-17T13:34:53.054Z,8.23
2018-12-17T13:37:21.448Z,9.57
2018-12-17T13:39:50.160Z,8.87
2018-12-17T13:42:18.764Z,9.60
2018-12-17T13:44:47.268Z,9.60
2018-12-17T13:47:15.595Z,11.37
2018-12-17T13:49:44.091Z,11.23
2018-12-17T13:52:18.143Z,9.37
2018-12-17T13:54:46.603Z,11.07
2018-12-17T13:57:14.993Z,11.80
2018-12-17T13:59:43.544Z,10.87
2018-12-17T14:02:12.693Z,11.87
2018-12-17T14:04:41.066Z,13.50
2018-12-17T14:07:09.371Z,12.30
2018-12-17T14:12:24.674Z,11.13
2018-12-17T14:14:53.517Z,15.43
2018-12-17T14:17:27.565Z,14.07
2018-12-17T14:23:12.880Z,14.93
2018-12-17T14:25:42.014Z,13.57
2018-12-17T14:28:10.426Z,13.47
2018-12-17T14:30:39.017Z,13.17
2018-12-17T14:33:07.331Z,13.43
2018-12-17T14:35:35.672Z,13.10
2018-12-17T14:38:04.084Z,15.60
2018-12-17T14:40:33.310Z,13.50
2018-12-17T14:43:01.661Z,16.43
2018-12-17T14:45:29.994Z,17.87
2018-12-17T14:47:58.354Z,17.00
2018-12-17T14:50:26.795Z,17.23
2018-12-17T14:52:55.503Z,17.43
2018-12-17T14:55:23.940Z,16.47
2018-12-17T14:57:53.009Z,18.20
2018-12-17T15:00:21.339Z,20.97
2018-12-17T15:02:49.759Z,16.93
2018-12-17T15:05:18.444Z,16.53
2018-12-17T15:10:21.893Z,19.97
2018-12-17T15:12:50.260Z,19.70
2018-12-17T15:15:18.626Z,19.73
2018-12-17T15:17:46.980Z,20.67
2018-12-17T15:20:15.539Z,25.33
2018-12-17T15:22:43.957Z,20.90
2018-12-17T15:25:16.337Z,22.33
2018-12-17T15:27:44.662Z,23.27
2018-12-17T15:30:13.967Z,21.30
2018-12-17T15:32:42.420Z,24.50
2018-12-17T15:35:10.943Z,21.10
2018-12-17T15:37:39.561Z,22.37
2018-12-17T15:40:08.635Z,27.83
2018-12-17T15:42:40.847Z,22.17
2018-12-17T15:45:07.650Z,24.73
2018-12-17T15:47:36.316Z,26.37
2018-12-17T15:50:04.828Z,33.17
2018-12-17T15:52:33.388Z,27.93
2018-12-17T15:55:02.540Z,31.40
2018-12-17T15:57:31.264Z,36.53
2018-12-17T15:59:59.649Z,34.33
2018-12-17T16:02:28.042Z,36.73
2018-12-17T16:04:56.470Z,35.13
2018-12-17T16:07:24.975Z,31.97
2018-12-17T16:09:55.538Z,37.10
2018-12-17T16:12:23.884Z,38.93
2018-12-17T16:14:53.144Z,36.77
2018-12-17T16:17:21.852Z,44.23
2018-12-17T16:19:50.359Z,37.70
2018-12-17T16:22:18.719Z,38.50
2018-12-17T16:24:47.307Z,39.67
2018-12-17T16:27:19.256Z,36.63
2018-12-17T16:29:46.395Z,35.73
2018-12-17T16:32:14.931Z,42.13
2018-12-17T16:34:43.407Z,33.77
2018-12-17T16:37:12.068Z,36.43
2018-12-17T16:39:40.565Z,35.90
2018-12-17T16:42:09.553Z,36.27
2018-12-17T16:44:38.329Z,35.87
2018-12-17T16:47:07.148Z,38.47
2018-12-17T16:49:35.534Z,34.23
2018-12-17T16:52:04.234Z,39.40
2018-12-17T16:54:32.590Z,39.03
2018-12-17T16:57:01.103Z,44.83
2018-12-17T16:59:29.480Z,38.00
2018-12-17T17:02:04.330Z,41.40
2018-12-17T17:04:28.655Z,36.73
2018-12-17T17:06:57.239Z,41.10
2018-12-17T17:09:25.903Z,35.80
2018-12-17T17:11:54.468Z,39.90
2018-12-17T17:14:22.887Z,41.73
2018-12-17T17:16:51.739Z,38.53
2018-12-17T17:19:20.454Z,41.43
2018-12-17T17:21:49.361Z,37.60
2018-12-17T17:24:17.959Z,35.30
2018-12-17T17:26:46.674Z,44.00
2018-12-17T17:29:15.082Z,34.00
2018-12-17T17:31:43.454Z,40.00
2018-12-17T17:34:12.533Z,44.20
2018-12-17T17:36:40.853Z,40.07
2018-12-17T17:39:09.753Z,41.47
2018-12-17T17:41:38.327Z,42.30
2018-12-17T17:44:07.020Z,41.47
2018-12-17T17:46:35.658Z,51.00
2018-12-17T17:49:04.120Z,54.37
2018-12-17T17:51:33.182Z,52.07
2018-12-17T17:54:01.647Z,48.67
2018-12-17T17:56:30.045Z,50.50
2018-12-17T17:58:58.768Z,51.20
2018-12-17T18:01:27.118Z,53.53
2018-12-17T18:03:55.447Z,50.20
2018-12-17T18:06:24.692Z,50.63
2018-12-17T18:08:53.478Z,49.33
2018-12-17T18:11:22.039Z,50.00
2018-12-17T18:13:50.364Z,55.70
2018-12-17T18:16:18.787Z,56.20
2018-12-17T18:18:47.701Z,52.53
2018-12-17T18:21:16.147Z,62.00
2018-12-17T18:23:44.473Z,55.57
2018-12-17T18:26:13.050Z,60.67
2018-12-17T18:28:41.539Z,63.67
2018-12-17T18:31:09.888Z,58.97
2018-12-17T18:33:38.399Z,60.90
2018-12-17T18:36:07.023Z,64.20
2018-12-17T18:38:35.579Z,66.67
2018-12-17T18:41:04.163Z,65.97
2018-12-17T18:43:32.750Z,68.83
2018-12-17T18:46:01.338Z,64.07
2018-12-17T18:48:30.448Z,64.07
2018-12-17T18:50:58.908Z,67.27
2018-12-17T18:53:27.335Z,62.87
2018-12-17T18:55:56.158Z,74.07
2018-12-17T18:58:24.968Z,70.60
2018-12-17T19:00:53.735Z,76.67
2018-12-17T19:03:22.318Z,72.17
2018-12-17T19:05:51.411Z,74.63
2018-12-17T19:08:19.816Z,72.70
2018-12-17T19:10:50.167Z,72.03
2018-12-17T19:13:18.828Z,69.60
2018-12-17T19:15:47.399Z,71.40
2018-12-17T19:18:16.611Z,76.80
2018-12-17T19:20:45.788Z,75.57
2018-12-17T19:23:14.379Z,78.87
2018-12-17T19:25:42.857Z,70.87
2018-12-17T19:28:12.025Z,65.70
2018-12-17T19:30:41.072Z,64.43
2018-12-17T19:33:10.743Z,65.17
2018-12-17T19:35:39.191Z,63.63
2018-12-17T19:38:08.323Z,70.87
2018-12-17T19:40:37.299Z,63.47
2018-12-17T19:43:06.591Z,70.27
2018-12-17T19:45:35.461Z,67.33
2018-12-17T19:48:04.116Z,67.70
2018-12-17T19:50:33.238Z,70.60
2018-12-17T19:53:02.534Z,74.63
2018-12-17T19:55:31.403Z,68.07
2018-12-17T19:58:00.645Z,73.13
2018-12-17T20:00:29.454Z,79.07
2018-12-17T20:02:59.692Z,71.23
2018-12-17T20:05:29.059Z,74.33
2018-12-17T20:07:58.175Z,74.93
2018-12-17T20:10:27.099Z,71.50
2018-12-17T20:12:56.581Z,71.77
2018-12-17T20:15:25.430Z,68.67
2018-12-17T20:17:55.025Z,69.30
2018-12-17T20:20:24.961Z,63.93
2018-12-17T20:22:53.563Z,70.33
2018-12-17T20:25:22.373Z,71.03
2018-12-17T20:27:51.237Z,67.33
2018-12-17T20:30:19.931Z,69.33
2018-12-17T20:32:53.517Z,65.00
2018-12-17T20:35:20.197Z,62.07
2018-12-17T20:37:49.176Z,70.43
2018-12-17T20:40:21.670Z,67.17
2018-12-17T20:42:50.511Z,72.73
2018-12-17T20:45:19.057Z,63.10
2018-12-17T20:47:47.949Z,56.43
2018-12-17T20:50:17.855Z,69.30
2018-12-17T20:52:47.210Z,61.97
2018-12-17T20:55:16.152Z,60.47
2018-12-17T20:57:45.189Z,61.50
2018-12-17T21:00:14.649Z,62.57
2018-12-17T21:02:44.359Z,56.90
2018-12-17T21:05:13.592Z,64.50
2018-12-17T21:07:42.034Z,61.00
2018-12-17T21:10:11.285Z,60.70
2018-12-17T21:12:40.762Z,55.93
2018-12-17T21:15:10.127Z,58.10
2018-12-17T21:17:39.159Z,59.30
2018-12-17T21:20:07.893Z,55.30
2018-12-17T21:22:36.564Z,53.23
2018-12-17T21:25:05.644Z,52.73
2018-12-17T21:27:34.143Z,58.90
2018-12-17T21:30:06.341Z,52.13
2018-12-17T21:32:35.062Z,50.17
2018-12-17T21:35:04.375Z,56.73
2018-12-17T21:37:33.050Z,50.60
2018-12-17T21:40:01.987Z,55.17
2018-12-17T21:42:30.682Z,51.27
2018-12-17T21:44:59.480Z,55.63
2018-12-17T21:47:28.175Z,50.67
2018-12-17T21:49:56.781Z,50.93
2018-12-17T21:52:25.628Z,52.90
2018-12-17T21:54:54.361Z,51.40
2018-12-17T21:57:23.019Z,54.93
2018-12-17T21:59:51.433Z,52.03
2018-12-17T22:02:20.347Z,52.17
2018-12-17T22:04:49.310Z,53.57
2018-12-17T22:07:17.819Z,50.93
2018-12-17T22:09:46.537Z,47.27
2018-12-17T22:12:15.265Z,53.07
2018-12-17T22:14:44.144Z,47.67
2018-12-17T22:17:12.971Z,47.53
2018-12-17T22:19:41.701Z,50.67
2018-12-17T22:22:10.428Z,50.00
2018-12-17T22:24:39.079Z,52.97
2018-12-17T22:27:07.682Z,50.87
2018-12-17T22:29:36.190Z,56.30
2018-12-17T22:32:04.676Z,55.70
2018-12-17T22:34:33.316Z,48.63
2018-12-17T22:37:01.660Z,48.57
2018-12-17T22:39:30.211Z,52.27
2018-12-17T22:41:58.802Z,57.07
2018-12-17T22:44:27.286Z,50.73
2018-12-17T22:46:55.677Z,52.47
2018-12-17T22:49:24.144Z,51.80
2018-12-17T22:51:52.759Z,56.70
2018-12-17T22:54:21.281Z,49.50
2018-12-17T22:56:49.800Z,56.33
2018-12-17T22:59:18.384Z,58.27
2018-12-17T23:01:46.839Z,56.50
2018-12-17T23:04:15.196Z,58.73
2018-12-17T23:06:44.442Z,56.10
2018-12-17T23:09:12.069Z,53.60
2018-12-17T23:12:03.959Z,50.67
2018-12-17T23:14:50.325Z,49.03
2018-12-17T23:17:36.632Z,53.77
2018-12-17T23:20:05.394Z,61.57
2018-12-17T23:22:34.094Z,53.43
2018-12-17T23:25:03.538Z,46.13
2018-12-17T23:27:31.971Z,51.00
2018-12-17T23:30:00.984Z,54.23
2018-12-17T23:32:34.033Z,55.47
2018-12-17T23:35:02.330Z,51.40
2018-12-17T23:37:31.508Z,52.27
2018-12-17T23:39:59.931Z,52.27
2018-12-17T23:42:28.652Z,45.33
2018-12-17T23:44:57.188Z,52.43
2018-12-17T23:47:25.512Z,60.93
2018-12-17T23:49:54.230Z,46.70
2018-12-17T23:52:22.659Z,51.47
2018-12-17T23:54:51.027Z,53.10
2018-12-17T23:57:19.505Z,53.37
2018-12-17T23:59:47.829Z,51.70
